< Typhoon 197014 1970 Season Typhoon 197016 >
Typhoon 197015 (FRAN)
General InformationTrack Information on Google Maps || Disaster Info.ResourceGoogle EarthGE AnimationAtom FeedGeoJSON
Detalied Best Track (Time Zone = UTC)
Year Month Day Hour Lat. Long. Pressure (hPa) Wind (kt) Class Image Chart
1970 9 3 00 18.0 128.0 1002 0 2 -- Chart
1970 9 3 06 18.7 127.0 1002 0 2 -- Chart
1970 9 3 12 19.0 126.0 1002 0 2 -- Chart
1970 9 3 18 19.5 125.8 1002 0 2 -- Chart
1970 9 4 00 20.0 126.0 1002 0 2 -- Chart
1970 9 4 06 20.6 126.7 998 0 2 -- Chart
1970 9 4 12 20.8 127.8 995 0 9 -- Chart
1970 9 4 18 21.3 128.7 994 0 9 -- Chart
1970 9 5 00 21.8 129.6 990 0 9 -- Chart
1970 9 5 06 23.1 130.2 990 0 9 -- Chart
1970 9 5 12 24.5 130.0 985 0 9 -- Chart
1970 9 5 18 25.8 128.5 980 0 9 -- Chart
1970 9 6 00 26.5 126.2 975 0 9 -- Chart
1970 9 6 06 25.9 124.8 980 0 9 -- Chart
1970 9 6 12 25.7 123.1 980 0 9 -- Chart
1970 9 6 18 25.7 121.8 980 0 9 -- Chart
1970 9 7 00 25.1 120.7 985 0 9 -- Chart
1970 9 7 06 24.9 120.2 985 0 9 -- Chart
1970 9 7 12 24.9 119.5 990 0 9 -- Chart
1970 9 7 18 24.9 118.8 996 0 9 -- Chart
1970 9 8 00 25.0 118.0 996 0 2 -- Chart
1970 9 8 06 24.9 117.6 996 0 2 -- Chart
1970 9 8 12 24.7 117.1 996 0 2 -- Chart
1970 9 8 18 24.6 116.5 996 0 2 -- Chart
1970 9 9 00 24.5 116.0 996 0 2 -- Chart
1970 9 9 06 24.5 115.5 996 0 2 -- Chart
1970 9 9 12 24.6 115.0 998 0 2 -- Chart
1970 9 9 18 25.3 114.6 1002 0 2 -- Chart
1970 9 10 00 26.2 114.5 1004 0 2 -- Chart
1970 9 10 06 26.9 114.6 1004 0 2 -- Chart
1970 9 10 12 27.2 114.8 1006 0 2 -- Chart
1970 9 10 18 27.6 114.9 1008 0 6 -- Chart
1970 9 11 00 28.0 115.0 1010 0 6 -- Chart
1970 9 11 06 28.2 115.0 1010 0 6 -- Chart
Japan Meteorological Agency Best Track Data | Correction Date : 1989-06-01
< Typhoon 197014 1970 Season Typhoon 197016 >

Help